Time;durP1;ratioP1;P1;durP2;ratioP2;P2;SDS_P1;SDS_P2;PMS_P1;PMS_P2;Temp;Humidity;BMP_temperature;BMP_pressure;BME280_temperature;BME280_humidity;BME280_pressure;Samples;Min_cycle;Max_cycle;Signal;HPM_P1;HPM_P2
2024/04/14 20:06:36;;;;;;;;;;;22.40;46.50;;;;;;4483712;20;1401261;-79
2024/04/14 20:09:01;;;;;;;;;;;22.50;46.60;;;;;;5441375;26;3056;-79
2024/04/14 20:11:30;;;;;;;;;;;22.50;46.30;;;;;;5447239;26;1952;-80
2024/04/14 20:13:56;;;;;;;;;;;22.50;46.30;;;;;;5416729;26;1778;-79
2024/04/14 20:16:24;;;;;;;;;;;22.50;46.20;;;;;;5416848;26;1816;-79
2024/04/14 20:18:49;;;;;;;;;;;22.40;46.10;;;;;;5406505;26;1785;-80
2024/04/14 20:21:17;;;;;;;;;;;22.30;46.00;;;;;;5410660;26;1631;-79
2024/04/14 20:23:43;;;;;;;;;;;22.40;46.10;;;;;;5403110;26;1824;-80
2024/04/14 20:26:11;;;;;;;;;;;22.40;46.00;;;;;;5410080;26;1722;-80
2024/04/14 20:28:37;;;;;;;;;;;22.40;46.00;;;;;;5417234;26;2002;-79
2024/04/14 20:31:05;;;;;;;;;;;22.40;46.10;;;;;;5418415;26;1461;-80
2024/04/14 20:33:30;;;;;;;;;;;22.40;46.00;;;;;;5415481;26;1828;-80
2024/04/14 20:35:58;;;;;;;;;;;22.40;46.00;;;;;;5418270;26;2004;-79
2024/04/14 20:38:24;;;;;;;;;;;22.40;46.00;;;;;;5409256;26;1675;-79
2024/04/14 20:40:52;;;;;;;;;;;22.40;46.00;;;;;;5416975;26;1738;-79
2024/04/14 20:43:18;;;;;;;;;;;22.30;45.90;;;;;;5418369;26;1528;-79
2024/04/14 20:45:46;;;;;;;;;;;22.40;46.00;;;;;;5416684;26;1829;-79
2024/04/14 20:48:11;;;;;;;;;;;22.30;45.90;;;;;;5417619;26;1924;-79
2024/04/14 20:50:39;;;;;;;;;;;22.30;45.80;;;;;;5418310;26;1078;-79
2024/04/14 20:53:05;;;;;;;;;;;22.40;45.90;;;;;;5417295;26;2212;-79
2024/04/14 20:55:33;;;;;;;;;;;22.40;45.80;;;;;;5414372;26;1476;-79
2024/04/14 20:57:58;;;;;;;;;;;22.30;45.80;;;;;;5410216;26;2531;-79
2024/04/14 21:00:26;;;;;;;;;;;22.30;45.80;;;;;;5418223;26;1750;-79
2024/04/14 21:02:52;;;;;;;;;;;22.30;45.70;;;;;;5428685;26;1685;-79
2024/04/14 21:05:20;;;;;;;;;;;22.30;45.70;;;;;;5420230;26;1146;-79
2024/04/14 21:07:45;;;;;;;;;;;22.30;45.70;;;;;;5419064;26;3395;-79
2024/04/14 21:10:13;;;;;;;;;;;22.30;45.70;;;;;;5418994;26;3106;-79
2024/04/14 21:12:39;;;;;;;;;;;22.30;45.70;;;;;;5420464;26;1750;-79
2024/04/14 21:15:08;;;;;;;;;;;22.30;45.80;;;;;;5419999;26;1655;-79
2024/04/14 21:17:34;;;;;;;;;;;22.30;45.80;;;;;;5419531;26;1597;-79
2024/04/14 21:20:02;;;;;;;;;;;22.30;45.80;;;;;;5420041;26;1134;-79
2024/04/14 21:22:27;;;;;;;;;;;22.30;45.80;;;;;;5420259;26;1249;-79
2024/04/14 21:24:55;;;;;;;;;;;22.30;45.90;;;;;;5419286;26;2095;-79
2024/04/14 21:27:22;;;;;;;;;;;22.30;45.90;;;;;;5419084;26;1838;-79
2024/04/14 21:29:50;;;;;;;;;;;22.30;45.90;;;;;;5420181;26;1017;-79
2024/04/14 21:32:16;;;;;;;;;;;22.20;45.90;;;;;;5419026;26;1206;-79
2024/04/14 21:34:44;;;;;;;;;;;22.20;46.00;;;;;;5415671;26;1380;-80
2024/04/14 21:37:09;;;;;;;;;;;22.20;46.00;;;;;;5408872;26;1747;-79
2024/04/14 21:39:37;;;;;;;;;;;22.20;46.00;;;;;;5419743;26;1050;-79
2024/04/14 21:42:05;;;;;;;;;;;22.20;46.10;;;;;;5419608;26;1243;-79
2024/04/14 21:44:33;;;;;;;;;;;22.20;46.20;;;;;;5418915;26;1012;-79
2024/04/14 21:46:58;;;;;;;;;;;22.20;46.20;;;;;;5411681;26;1927;-79
2024/04/14 21:49:26;;;;;;;;;;;22.20;46.20;;;;;;5419202;26;1083;-79
2024/04/14 21:51:52;;;;;;;;;;;22.20;46.20;;;;;;5418885;26;1119;-79
2024/04/14 21:54:20;;;;;;;;;;;22.20;46.30;;;;;;5418442;26;1114;-79
2024/04/14 21:56:46;;;;;;;;;;;22.10;46.20;;;;;;5419420;26;2214;-79
2024/04/14 21:59:14;;;;;;;;;;;22.20;46.30;;;;;;5419044;26;1984;-79
2024/04/14 22:01:39;;;;;;;;;;;22.20;46.40;;;;;;5420142;26;2602;-79
2024/04/14 22:04:07;;;;;;;;;;;22.10;46.30;;;;;;5419452;26;1735;-79
2024/04/14 22:06:33;;;;;;;;;;;22.10;46.40;;;;;;5420309;26;1030;-79
2024/04/14 22:09:01;;;;;;;;;;;22.10;46.40;;;;;;5417484;26;3009;-79
2024/04/14 22:11:26;;;;;;;;;;;22.10;46.40;;;;;;5416351;26;2755;-79
2024/04/14 22:13:54;;;;;;;;;;;22.10;46.50;;;;;;5418295;26;1110;-79
2024/04/14 22:16:20;;;;;;;;;;;22.10;46.50;;;;;;5419603;26;1590;-79
2024/04/14 22:18:48;;;;;;;;;;;22.10;46.50;;;;;;5418169;26;1046;-79
2024/04/14 22:21:13;;;;;;;;;;;22.10;46.50;;;;;;5408749;26;955;-79
2024/04/14 22:23:41;;;;;;;;;;;22.00;46.40;;;;;;5419261;26;1612;-79
2024/04/14 22:26:07;;;;;;;;;;;22.00;46.50;;;;;;5417872;26;2184;-79
2024/04/14 22:28:35;;;;;;;;;;;22.00;46.50;;;;;;5418671;26;1895;-79
2024/04/14 22:31:00;;;;;;;;;;;22.00;46.50;;;;;;5418695;26;1012;-79
2024/04/14 22:33:28;;;;;;;;;;;22.00;46.50;;;;;;5419260;26;1166;-79
2024/04/14 22:35:53;;;;;;;;;;;22.00;46.60;;;;;;5417548;26;1934;-79
2024/04/14 22:38:22;;;;;;;;;;;22.00;46.60;;;;;;5417256;26;1560;-78
2024/04/14 22:40:48;;;;;;;;;;;22.00;46.60;;;;;;5418454;26;1431;-79
2024/04/14 22:43:16;;;;;;;;;;;22.00;46.60;;;;;;5419295;26;1158;-79
2024/04/14 22:45:41;;;;;;;;;;;22.00;46.60;;;;;;5418682;26;1059;-79
2024/04/14 22:48:09;;;;;;;;;;;22.00;46.60;;;;;;5418198;26;1841;-80
2024/04/14 22:50:35;;;;;;;;;;;22.00;46.60;;;;;;5417917;26;1642;-79
2024/04/14 22:53:03;;;;;;;;;;;21.90;46.60;;;;;;5419320;26;1221;-79
2024/04/14 22:55:28;;;;;;;;;;;21.90;46.60;;;;;;5419078;26;1026;-79
2024/04/14 22:57:56;;;;;;;;;;;21.90;47.20;;;;;;5418184;26;2206;-80
2024/04/14 23:00:22;;;;;;;;;;;21.90;46.60;;;;;;5423243;26;971;-79
2024/04/14 23:02:50;;;;;;;;;;;21.90;46.60;;;;;;5433768;26;1712;-78
2024/04/14 23:05:16;;;;;;;;;;;21.90;46.60;;;;;;5421290;26;1533;-78
2024/04/14 23:07:44;;;;;;;;;;;21.90;46.60;;;;;;5421780;26;1880;-79
2024/04/14 23:10:09;;;;;;;;;;;21.90;46.60;;;;;;5418731;26;2809;-79
2024/04/14 23:12:37;;;;;;;;;;;21.90;46.60;;;;;;5420520;26;3101;-79
2024/04/14 23:15:03;;;;;;;;;;;21.90;46.60;;;;;;5423064;26;1031;-79
2024/04/14 23:17:31;;;;;;;;;;;21.90;46.60;;;;;;5421720;26;1583;-79
2024/04/14 23:19:56;;;;;;;;;;;21.80;46.50;;;;;;5421138;26;1725;-79
2024/04/14 23:22:24;;;;;;;;;;;21.80;46.60;;;;;;5420768;26;1449;-79
2024/04/14 23:24:50;;;;;;;;;;;21.90;46.60;;;;;;5420392;26;1686;-79
2024/04/14 23:27:18;;;;;;;;;;;21.80;46.60;;;;;;5422900;26;1882;-79
2024/04/14 23:29:44;;;;;;;;;;;21.80;46.60;;;;;;5420905;26;1857;-79
2024/04/14 23:32:12;;;;;;;;;;;21.80;46.60;;;;;;5423372;26;1675;-79
2024/04/14 23:34:37;;;;;;;;;;;21.80;46.60;;;;;;5421688;26;1873;-79
2024/04/14 23:37:06;;;;;;;;;;;21.80;46.60;;;;;;5420127;26;1306;-80
2024/04/14 23:39:31;;;;;;;;;;;21.80;46.60;;;;;;5419220;26;975;-79
2024/04/14 23:41:59;;;;;;;;;;;21.80;46.60;;;;;;5418758;26;1295;-79
2024/04/14 23:44:24;;;;;;;;;;;21.80;46.60;;;;;;5418147;26;993;-79
2024/04/14 23:46:53;;;;;;;;;;;21.80;46.70;;;;;;5417884;26;1102;-79
2024/04/14 23:49:19;;;;;;;;;;;21.70;46.60;;;;;;5419415;26;1850;-79
2024/04/14 23:51:47;;;;;;;;;;;21.80;46.70;;;;;;5419740;26;2169;-79
2024/04/14 23:54:12;;;;;;;;;;;21.70;46.60;;;;;;5420107;26;970;-79
2024/04/14 23:56:40;;;;;;;;;;;21.70;46.60;;;;;;5408428;26;1583;-79
2024/04/14 23:59:06;;;;;;;;;;;21.70;46.60;;;;;;5420015;26;1457;-79
